sensor_id;sensor_type;location;lat;lon;timestamp;pressure;altitude;pressure_sealevel;temperature;humidity
25650;BME280;13505;45.196;5.696;2022-10-16T04:02:26;99349.81;;;14.59;98.32
25650;BME280;13505;45.196;5.696;2022-10-16T04:07:16;99357.50;;;14.63;96.16
25650;BME280;13505;45.196;5.696;2022-10-16T04:12:07;99346.97;;;14.62;95.51
25650;BME280;13505;45.196;5.696;2022-10-16T04:16:57;99343.16;;;14.51;97.59
25650;BME280;13505;45.196;5.696;2022-10-16T04:21:47;99347.06;;;14.60;97.34
25650;BME280;13505;45.196;5.696;2022-10-16T04:26:38;99354.47;;;14.55;98.03
25650;BME280;13505;45.196;5.696;2022-10-16T04:31:28;99363.06;;;14.59;96.05
25650;BME280;13505;45.196;5.696;2022-10-16T04:36:18;99362.91;;;14.62;96.28
25650;BME280;13505;45.196;5.696;2022-10-16T04:41:09;99363.94;;;14.59;97.13
25650;BME280;13505;45.196;5.696;2022-10-16T04:45:59;99365.50;;;14.47;98.96
25650;BME280;13505;45.196;5.696;2022-10-16T04:50:50;99370.47;;;14.54;97.10
25650;BME280;13505;45.196;5.696;2022-10-16T04:55:41;99384.03;;;14.63;96.97
25650;BME280;13505;45.196;5.696;2022-10-16T05:00:32;99374.41;;;14.46;98.75
25650;BME280;13505;45.196;5.696;2022-10-16T05:05:22;99365.66;;;14.60;96.94
25650;BME280;13505;45.196;5.696;2022-10-16T05:10:13;99374.69;;;14.42;98.13
25650;BME280;13505;45.196;5.696;2022-10-16T05:15:04;99376.38;;;14.28;100.00
25650;BME280;13505;45.196;5.696;2022-10-16T05:19:54;99375.44;;;14.44;99.32
25650;BME280;13505;45.196;5.696;2022-10-16T05:24:45;99386.97;;;14.59;97.38
25650;BME280;13505;45.196;5.696;2022-10-16T05:29:35;99389.63;;;14.59;97.09
25650;BME280;13505;45.196;5.696;2022-10-16T05:34:25;99388.31;;;14.66;97.34
25650;BME280;13505;45.196;5.696;2022-10-16T05:39:16;99402.81;;;14.60;94.16
25650;BME280;13505;45.196;5.696;2022-10-16T05:44:06;99403.44;;;14.49;93.08
25650;BME280;13505;45.196;5.696;2022-10-16T05:48:56;99399.34;;;14.44;93.55
25650;BME280;13505;45.196;5.696;2022-10-16T05:53:47;99405.53;;;14.28;95.49
25650;BME280;13505;45.196;5.696;2022-10-16T05:58:38;99393.00;;;14.16;98.63
25650;BME280;13505;45.196;5.696;2022-10-16T06:03:30;99409.81;;;14.31;98.23
25650;BME280;13505;45.196;5.696;2022-10-16T06:08:22;99417.34;;;14.38;98.09
25650;BME280;13505;45.196;5.696;2022-10-16T06:13:13;99426.13;;;14.39;94.64
25650;BME280;13505;45.196;5.696;2022-10-16T06:18:04;99427.88;;;14.40;93.61
25650;BME280;13505;45.196;5.696;2022-10-16T06:22:54;99442.34;;;14.34;94.07
25650;BME280;13505;45.196;5.696;2022-10-16T06:27:45;99447.06;;;14.29;96.19
25650;BME280;13505;45.196;5.696;2022-10-16T06:32:35;99447.38;;;14.23;97.05
25650;BME280;13505;45.196;5.696;2022-10-16T06:37:26;99450.84;;;14.09;98.27
25650;BME280;13505;45.196;5.696;2022-10-16T06:42:18;99452.88;;;14.04;98.40
25650;BME280;13505;45.196;5.696;2022-10-16T06:47:08;99451.78;;;14.24;97.80
25650;BME280;13505;45.196;5.696;2022-10-16T06:51:59;99450.97;;;14.22;97.48
25650;BME280;13505;45.196;5.696;2022-10-16T06:56:50;99463.38;;;14.54;96.29
25650;BME280;13505;45.196;5.696;2022-10-16T07:01:41;99462.47;;;14.69;94.41
25650;BME280;13505;45.196;5.696;2022-10-16T07:06:33;99454.97;;;14.92;92.14
25650;BME280;13505;45.196;5.696;2022-10-16T07:11:24;99463.59;;;14.81;92.57
25650;BME280;13505;45.196;5.696;2022-10-16T07:16:16;99470.13;;;14.90;91.06
25650;BME280;13505;45.196;5.696;2022-10-16T07:21:12;99471.91;;;15.20;88.96
25650;BME280;13505;45.196;5.696;2022-10-16T07:26:03;99480.63;;;15.22;88.08
25650;BME280;13505;45.196;5.696;2022-10-16T07:30:54;99478.88;;;15.52;86.71
25650;BME280;13505;45.196;5.696;2022-10-16T07:35:52;99486.63;;;15.69;85.71
25650;BME280;13505;45.196;5.696;2022-10-16T07:40:42;99491.41;;;15.64;85.34
25650;BME280;13505;45.196;5.696;2022-10-16T07:45:33;99497.78;;;15.90;84.23
25650;BME280;13505;45.196;5.696;2022-10-16T07:50:23;99498.78;;;16.02;82.01
25650;BME280;13505;45.196;5.696;2022-10-16T07:55:13;99503.81;;;16.49;79.64
25650;BME280;13505;45.196;5.696;2022-10-16T08:00:04;99507.59;;;16.59;78.13
25650;BME280;13505;45.196;5.696;2022-10-16T08:04:54;99515.75;;;16.84;76.61
25650;BME280;13505;45.196;5.696;2022-10-16T08:09:49;99522.34;;;17.06;74.76
25650;BME280;13505;45.196;5.696;2022-10-16T08:14:39;99511.72;;;17.44;74.26
25650;BME280;13505;45.196;5.696;2022-10-16T08:19:30;99495.81;;;17.69;71.21
25650;BME280;13505;45.196;5.696;2022-10-16T08:24:21;99500.28;;;17.55;69.33
25650;BME280;13505;45.196;5.696;2022-10-16T08:29:13;99505.13;;;18.00;69.94
25650;BME280;13505;45.196;5.696;2022-10-16T08:34:03;99498.19;;;18.48;66.54
25650;BME280;13505;45.196;5.696;2022-10-16T08:38:54;99503.19;;;18.29;65.91
25650;BME280;13505;45.196;5.696;2022-10-16T08:48:47;99496.66;;;18.57;64.33
25650;BME280;13505;45.196;5.696;2022-10-16T08:59:16;99508.28;;;18.80;62.75
25650;BME280;13505;45.196;5.696;2022-10-16T09:04:47;99500.22;;;19.52;61.13
25650;BME280;13505;45.196;5.696;2022-10-16T09:10:11;99513.06;;;20.38;62.18
25650;BME280;13505;45.196;5.696;2022-10-16T09:25:11;99527.22;;;21.27;57.96
25650;BME280;13505;45.196;5.696;2022-10-16T09:30:20;99521.06;;;21.57;56.05
25650;BME280;13505;45.196;5.696;2022-10-16T09:35:17;99527.00;;;21.82;57.00
25650;BME280;13505;45.196;5.696;2022-10-16T09:40:23;99506.59;;;22.11;56.56
25650;BME280;13505;45.196;5.696;2022-10-16T09:45:21;99503.28;;;22.38;54.83
25650;BME280;13505;45.196;5.696;2022-10-16T09:50:39;99509.44;;;22.70;55.49
25650;BME280;13505;45.196;5.696;2022-10-16T09:55:29;99507.03;;;22.77;53.38
25650;BME280;13505;45.196;5.696;2022-10-16T10:00:21;99511.09;;;23.00;54.03
25650;BME280;13505;45.196;5.696;2022-10-16T10:05:24;99492.13;;;23.22;53.33
25650;BME280;13505;45.196;5.696;2022-10-16T10:10:30;99504.13;;;23.37;51.94
25650;BME280;13505;45.196;5.696;2022-10-16T10:15:21;99490.19;;;23.52;52.92
25650;BME280;13505;45.196;5.696;2022-10-16T10:20:32;99487.63;;;23.60;52.29
25650;BME280;13505;45.196;5.696;2022-10-16T10:40:32;99474.66;;;23.46;51.82
25650;BME280;13505;45.196;5.696;2022-10-16T10:45:38;99458.66;;;24.00;50.68
25650;BME280;13505;45.196;5.696;2022-10-16T10:50:42;99457.28;;;24.42;50.08
25650;BME280;13505;45.196;5.696;2022-10-16T11:01:09;99436.97;;;24.30;50.21
25650;BME280;13505;45.196;5.696;2022-10-16T11:06:06;99424.31;;;24.30;52.50
25650;BME280;13505;45.196;5.696;2022-10-16T11:11:01;99431.81;;;24.18;52.17
25650;BME280;13505;45.196;5.696;2022-10-16T11:15:57;99421.16;;;24.53;53.44
25650;BME280;13505;45.196;5.696;2022-10-16T11:20:59;99401.50;;;25.32;50.02
25650;BME280;13505;45.196;5.696;2022-10-16T11:25:54;99410.69;;;25.47;51.17
25650;BME280;13505;45.196;5.696;2022-10-16T11:30:53;99402.59;;;25.90;48.04
25650;BME280;13505;45.196;5.696;2022-10-16T11:40:48;99405.91;;;26.44;47.67
25650;BME280;13505;45.196;5.696;2022-10-16T11:45:45;99392.38;;;26.19;49.21
25650;BME280;13505;45.196;5.696;2022-10-16T11:50:52;99398.38;;;25.88;42.83
25650;BME280;13505;45.196;5.696;2022-10-16T11:55:45;99387.84;;;26.36;44.84
25650;BME280;13505;45.196;5.696;2022-10-16T12:00:45;99375.19;;;26.37;44.66
25650;BME280;13505;45.196;5.696;2022-10-16T12:10:46;99376.69;;;26.47;41.28
25650;BME280;13505;45.196;5.696;2022-10-16T12:15:37;99382.75;;;26.91;36.66
25650;BME280;13505;45.196;5.696;2022-10-16T12:25:29;99372.28;;;26.96;35.87
25650;BME280;13505;45.196;5.696;2022-10-16T12:30:23;99368.19;;;27.09;36.41
25650;BME280;13505;45.196;5.696;2022-10-16T12:35:23;99369.50;;;27.21;35.32
25650;BME280;13505;45.196;5.696;2022-10-16T12:40:23;99357.72;;;26.97;35.61
25650;BME280;13505;45.196;5.696;2022-10-16T12:45:33;99358.50;;;27.23;36.41
25650;BME280;13505;45.196;5.696;2022-10-16T12:50:36;99358.34;;;27.16;34.54
25650;BME280;13505;45.196;5.696;2022-10-16T12:55:33;99361.38;;;27.21;34.91
25650;BME280;13505;45.196;5.696;2022-10-16T13:11:05;99351.66;;;27.35;34.39
25650;BME280;13505;45.196;5.696;2022-10-16T13:26:01;99348.94;;;27.43;32.76
25650;BME280;13505;45.196;5.696;2022-10-16T13:30:56;99350.47;;;26.98;33.39
25650;BME280;13505;45.196;5.696;2022-10-16T13:35:51;99353.78;;;27.08;33.64
25650;BME280;13505;45.196;5.696;2022-10-16T13:41:00;99351.53;;;27.28;34.09
25650;BME280;13505;45.196;5.696;2022-10-16T13:55:56;99352.97;;;26.99;32.92
25650;BME280;13505;45.196;5.696;2022-10-16T14:00:55;99350.81;;;26.70;33.31
25650;BME280;13505;45.196;5.696;2022-10-16T14:05:54;99347.94;;;26.63;33.32
25650;BME280;13505;45.196;5.696;2022-10-16T14:10:50;99353.84;;;26.75;33.95
25650;BME280;13505;45.196;5.696;2022-10-16T14:15:47;99362.47;;;26.79;33.59
25650;BME280;13505;45.196;5.696;2022-10-16T14:20:39;99361.94;;;26.83;33.52
25650;BME280;13505;45.196;5.696;2022-10-16T14:25:31;99362.28;;;26.80;33.83
25650;BME280;13505;45.196;5.696;2022-10-16T14:30:24;99367.56;;;26.65;33.63
25650;BME280;13505;45.196;5.696;2022-10-16T14:35:34;99370.44;;;26.47;33.18
25650;BME280;13505;45.196;5.696;2022-10-16T14:40:28;99372.28;;;26.55;33.61
25650;BME280;13505;45.196;5.696;2022-10-16T14:45:21;99377.53;;;26.56;34.23
25650;BME280;13505;45.196;5.696;2022-10-16T14:50:13;99382.59;;;26.59;33.51
25650;BME280;13505;45.196;5.696;2022-10-16T14:55:04;99378.72;;;26.62;34.54
25650;BME280;13505;45.196;5.696;2022-10-16T14:59:54;99381.56;;;26.44;33.87
25650;BME280;13505;45.196;5.696;2022-10-16T15:04:45;99377.38;;;26.33;33.63
25650;BME280;13505;45.196;5.696;2022-10-16T15:09:35;99381.25;;;26.30;34.12
25650;BME280;13505;45.196;5.696;2022-10-16T15:14:25;99379.84;;;26.10;34.25
25650;BME280;13505;45.196;5.696;2022-10-16T15:19:15;99384.56;;;26.08;34.09
25650;BME280;13505;45.196;5.696;2022-10-16T15:24:11;99381.34;;;26.04;34.14
25650;BME280;13505;45.196;5.696;2022-10-16T15:29:02;99380.84;;;25.92;34.44
25650;BME280;13505;45.196;5.696;2022-10-16T15:33:54;99381.66;;;25.92;34.38
25650;BME280;13505;45.196;5.696;2022-10-16T15:38:48;99387.75;;;25.86;34.67
25650;BME280;13505;45.196;5.696;2022-10-16T15:43:38;99390.72;;;25.75;36.22
25650;BME280;13505;45.196;5.696;2022-10-16T15:48:30;99398.63;;;25.60;35.25
25650;BME280;13505;45.196;5.696;2022-10-16T15:53:20;99394.13;;;25.42;35.75
25650;BME280;13505;45.196;5.696;2022-10-16T15:58:10;99397.88;;;25.15;36.14
25650;BME280;13505;45.196;5.696;2022-10-16T16:03:01;99399.31;;;25.01;36.65
25650;BME280;13505;45.196;5.696;2022-10-16T16:07:51;99407.28;;;24.66;38.94
25650;BME280;13505;45.196;5.696;2022-10-16T16:12:42;99420.41;;;24.61;37.13
25650;BME280;13505;45.196;5.696;2022-10-16T16:17:34;99422.09;;;24.62;38.04
25650;BME280;13505;45.196;5.696;2022-10-16T16:22:24;99428.28;;;24.54;37.13
25650;BME280;13505;45.196;5.696;2022-10-16T16:27:15;99426.19;;;24.48;37.58
25650;BME280;13505;45.196;5.696;2022-10-16T16:32:05;99424.66;;;23.99;39.68
25650;BME280;13505;45.196;5.696;2022-10-16T16:36:55;99430.25;;;23.88;38.88
25650;BME280;13505;45.196;5.696;2022-10-16T16:41:46;99433.03;;;24.24;37.92
25650;BME280;13505;45.196;5.696;2022-10-16T16:46:37;99435.34;;;24.19;38.37
25650;BME280;13505;45.196;5.696;2022-10-16T16:51:29;99455.09;;;24.09;39.21
25650;BME280;13505;45.196;5.696;2022-10-16T16:56:20;99453.75;;;23.95;39.48
25650;BME280;13505;45.196;5.696;2022-10-16T17:01:11;99460.44;;;23.63;40.08
25650;BME280;13505;45.196;5.696;2022-10-16T17:06:06;99471.22;;;23.53;40.63
25650;BME280;13505;45.196;5.696;2022-10-16T17:10:58;99478.91;;;23.48;40.46
25650;BME280;13505;45.196;5.696;2022-10-16T17:15:49;99475.94;;;23.41;40.96
25650;BME280;13505;45.196;5.696;2022-10-16T17:20:40;99496.31;;;23.44;40.98
25650;BME280;13505;45.196;5.696;2022-10-16T17:25:30;99500.34;;;23.10;42.45
25650;BME280;13505;45.196;5.696;2022-10-16T17:30:23;99504.47;;;22.75;43.79
25650;BME280;13505;45.196;5.696;2022-10-16T17:35:13;99516.78;;;22.68;43.49
25650;BME280;13505;45.196;5.696;2022-10-16T17:40:04;99525.69;;;22.88;42.78
25650;BME280;13505;45.196;5.696;2022-10-16T17:44:54;99538.44;;;22.66;43.87
25650;BME280;13505;45.196;5.696;2022-10-16T17:49:45;99543.88;;;22.35;45.87
25650;BME280;13505;45.196;5.696;2022-10-16T17:54:35;99546.63;;;22.14;46.09
25650;BME280;13505;45.196;5.696;2022-10-16T17:59:25;99556.28;;;22.26;45.20
25650;BME280;13505;45.196;5.696;2022-10-16T18:04:17;99568.03;;;22.25;45.41
25650;BME280;13505;45.196;5.696;2022-10-16T18:09:08;99559.97;;;22.35;44.17
25650;BME280;13505;45.196;5.696;2022-10-16T18:13:59;99572.81;;;22.92;42.81
25650;BME280;13505;45.196;5.696;2022-10-16T18:18:50;99566.47;;;22.83;43.01
25650;BME280;13505;45.196;5.696;2022-10-16T18:23:42;99571.53;;;22.67;44.30
25650;BME280;13505;45.196;5.696;2022-10-16T18:28:33;99566.03;;;22.27;44.54
25650;BME280;13505;45.196;5.696;2022-10-16T18:33:24;99561.75;;;22.56;43.95
25650;BME280;13505;45.196;5.696;2022-10-16T18:38:14;99576.78;;;22.88;42.94
25650;BME280;13505;45.196;5.696;2022-10-16T18:43:05;99583.59;;;22.82;43.92
25650;BME280;13505;45.196;5.696;2022-10-16T18:47:55;99592.50;;;22.32;45.44
25650;BME280;13505;45.196;5.696;2022-10-16T18:52:46;99588.06;;;21.90;46.58
25650;BME280;13505;45.196;5.696;2022-10-16T18:57:37;99599.03;;;21.77;48.20
25650;BME280;13505;45.196;5.696;2022-10-16T19:02:27;99601.03;;;21.64;47.84
25650;BME280;13505;45.196;5.696;2022-10-16T19:07:18;99582.78;;;21.36;49.67
25650;BME280;13505;45.196;5.696;2022-10-16T19:12:08;99601.03;;;21.21;50.49
25650;BME280;13505;45.196;5.696;2022-10-16T19:16:59;99610.81;;;21.11;53.05
25650;BME280;13505;45.196;5.696;2022-10-16T19:21:49;99612.97;;;20.84;54.64
25650;BME280;13505;45.196;5.696;2022-10-16T19:26:44;99623.84;;;20.83;56.65
25650;BME280;13505;45.196;5.696;2022-10-16T19:31:35;99636.84;;;20.76;57.88
25650;BME280;13505;45.196;5.696;2022-10-16T19:36:31;99628.47;;;20.69;56.65
25650;BME280;13505;45.196;5.696;2022-10-16T19:41:22;99659.91;;;20.56;59.94
25650;BME280;13505;45.196;5.696;2022-10-16T19:46:15;99639.22;;;20.46;61.36
25650;BME280;13505;45.196;5.696;2022-10-16T19:51:06;99638.13;;;20.49;61.51
25650;BME280;13505;45.196;5.696;2022-10-16T19:55:59;99664.19;;;20.35;63.98
25650;BME280;13505;45.196;5.696;2022-10-16T20:00:50;99658.47;;;20.29;64.86
25650;BME280;13505;45.196;5.696;2022-10-16T20:05:51;99663.44;;;20.22;66.21
25650;BME280;13505;45.196;5.696;2022-10-16T20:10:52;99665.53;;;20.18;66.45
25650;BME280;13505;45.196;5.696;2022-10-16T20:15:43;99678.16;;;20.16;66.86
25650;BME280;13505;45.196;5.696;2022-10-16T20:20:38;99690.22;;;20.11;67.22
25650;BME280;13505;45.196;5.696;2022-10-16T20:25:28;99693.72;;;20.00;69.62
25650;BME280;13505;45.196;5.696;2022-10-16T20:30:18;99703.47;;;20.01;69.12
25650;BME280;13505;45.196;5.696;2022-10-16T20:35:09;99696.13;;;19.91;69.13
25650;BME280;13505;45.196;5.696;2022-10-16T20:39:59;99701.78;;;19.75;70.08
25650;BME280;13505;45.196;5.696;2022-10-16T20:44:49;99711.00;;;19.60;71.65
25650;BME280;13505;45.196;5.696;2022-10-16T20:49:39;99708.41;;;19.58;73.65
25650;BME280;13505;45.196;5.696;2022-10-16T20:54:30;99710.53;;;19.42;73.73
25650;BME280;13505;45.196;5.696;2022-10-16T20:59:20;99723.78;;;19.43;73.43
25650;BME280;13505;45.196;5.696;2022-10-16T21:04:10;99720.16;;;19.44;74.17
25650;BME280;13505;45.196;5.696;2022-10-16T21:09:01;99703.91;;;19.23;75.69
25650;BME280;13505;45.196;5.696;2022-10-16T21:13:54;99715.78;;;19.19;74.72
25650;BME280;13505;45.196;5.696;2022-10-16T21:18:45;99714.97;;;19.05;76.04
25650;BME280;13505;45.196;5.696;2022-10-16T21:23:35;99718.84;;;19.01;75.49
25650;BME280;13505;45.196;5.696;2022-10-16T21:28:27;99716.47;;;18.96;76.82
25650;BME280;13505;45.196;5.696;2022-10-16T21:33:19;99718.94;;;18.87;75.94
25650;BME280;13505;45.196;5.696;2022-10-16T21:38:09;99724.50;;;18.83;76.93
25650;BME280;13505;45.196;5.696;2022-10-16T21:42:59;99735.53;;;18.79;75.97
25650;BME280;13505;45.196;5.696;2022-10-16T21:47:50;99750.19;;;18.60;77.69
25650;BME280;13505;45.196;5.696;2022-10-16T21:52:40;99756.41;;;18.61;76.76
25650;BME280;13505;45.196;5.696;2022-10-16T21:57:31;99751.91;;;18.61;76.12
